createdAt,value
2017-12-24T00:00:06.060Z,1017.96
2017-12-24T00:01:06.036Z,1017.95
2017-12-24T00:02:06.015Z,1017.97
2017-12-24T00:03:05.992Z,1017.99
2017-12-24T00:04:05.970Z,1017.95
2017-12-24T00:05:05.949Z,1017.93
2017-12-24T00:06:05.927Z,1017.96
2017-12-24T00:07:05.904Z,1017.97
2017-12-24T00:08:05.883Z,1017.95
2017-12-24T00:09:05.862Z,1017.90
2017-12-24T00:10:05.840Z,1017.91
2017-12-24T00:11:05.816Z,1018.01
2017-12-24T00:12:05.797Z,1017.93
2017-12-24T00:13:05.772Z,1017.98
2017-12-24T00:14:05.751Z,1017.96
2017-12-24T00:15:05.728Z,1017.95
2017-12-24T00:16:05.706Z,1017.99
2017-12-24T00:17:05.686Z,1017.81
2017-12-24T00:18:05.664Z,1017.94
2017-12-24T00:19:05.640Z,1017.90
2017-12-24T00:20:05.619Z,1018.00
2017-12-24T00:21:05.598Z,1017.94
2017-12-24T00:22:06.379Z,1017.91
2017-12-24T00:23:05.554Z,1017.98
2017-12-24T00:24:05.531Z,1017.91
2017-12-24T00:25:05.509Z,1017.91
2017-12-24T00:26:05.488Z,1017.90
2017-12-24T00:27:05.566Z,1017.85
2017-12-24T00:28:05.444Z,1017.90
2017-12-24T00:29:05.422Z,1017.93
2017-12-24T00:30:05.401Z,1017.95
2017-12-24T00:31:05.377Z,1017.93
2017-12-24T00:32:05.356Z,1017.91
2017-12-24T00:33:05.336Z,1017.90
2017-12-24T00:34:05.312Z,1017.93
2017-12-24T00:35:05.291Z,1017.86
2017-12-24T00:36:05.271Z,1017.90
2017-12-24T00:37:05.248Z,1017.87
2017-12-24T00:38:05.226Z,1017.85
2017-12-24T00:39:05.304Z,1017.97
2017-12-24T00:40:05.184Z,1017.92
2017-12-24T00:41:05.160Z,1017.99
2017-12-24T00:42:05.138Z,1017.97
2017-12-24T00:43:05.116Z,1017.94
2017-12-24T00:44:05.093Z,1018.04
2017-12-24T00:45:05.073Z,1018.03
2017-12-24T00:46:05.050Z,1018.04
2017-12-24T00:47:05.027Z,1018.03
2017-12-24T00:48:05.007Z,1018.09
2017-12-24T00:49:05.235Z,1018.08
2017-12-24T00:50:04.963Z,1018.03
2017-12-24T00:51:04.941Z,1018.05
2017-12-24T00:52:04.918Z,1018.09
2017-12-24T00:53:04.948Z,1018.08
2017-12-24T00:54:04.877Z,1017.96
2017-12-24T00:55:04.852Z,1018.03
2017-12-24T00:56:04.830Z,1018.00
2017-12-24T00:57:04.810Z,1018.05
2017-12-24T00:58:04.789Z,1018.02
2017-12-24T00:59:04.766Z,1018.00
2017-12-24T01:00:04.743Z,1017.97
2017-12-24T01:01:04.722Z,1017.92
2017-12-24T01:02:04.700Z,1018.02
2017-12-24T01:03:04.677Z,1017.92
2017-12-24T01:04:04.656Z,1017.96
2017-12-24T01:05:04.633Z,1018.04
2017-12-24T01:06:04.615Z,1017.94
2017-12-24T01:07:04.590Z,1018.01
2017-12-24T01:08:04.568Z,1018.07
2017-12-24T01:09:04.545Z,1017.99
2017-12-24T01:10:04.525Z,1017.95
2017-12-24T01:11:04.502Z,1017.98
2017-12-24T01:12:04.480Z,1017.96
2017-12-24T01:13:04.457Z,1017.91
2017-12-24T01:14:04.437Z,1017.96
2017-12-24T01:15:04.412Z,1017.98
2017-12-24T01:16:04.391Z,1017.98
2017-12-24T01:17:04.368Z,1017.93
2017-12-24T01:18:04.347Z,1017.94
2017-12-24T01:19:04.324Z,1017.97
2017-12-24T01:20:04.303Z,1018.00
2017-12-24T01:21:04.281Z,1017.98
2017-12-24T01:22:04.260Z,1017.98
2017-12-24T01:23:04.236Z,1017.98
2017-12-24T01:24:04.214Z,1018.07
2017-12-24T01:25:04.193Z,1018.04
2017-12-24T01:26:04.171Z,1018.08
2017-12-24T01:27:04.148Z,1018.05
2017-12-24T01:28:04.128Z,1018.10
2017-12-24T01:29:04.103Z,1018.10
2017-12-24T01:30:04.082Z,1018.15
2017-12-24T01:31:04.059Z,1018.12
2017-12-24T01:32:04.042Z,1018.17
2017-12-24T01:33:10.282Z,1018.18
2017-12-24T01:34:03.994Z,1018.18
2017-12-24T01:35:03.972Z,1018.19
2017-12-24T01:36:03.949Z,1018.22
2017-12-24T01:37:03.927Z,1018.25
2017-12-24T01:38:03.905Z,1018.31
2017-12-24T01:39:03.883Z,1018.27
2017-12-24T01:40:03.861Z,1018.31
2017-12-24T01:41:03.839Z,1018.28
2017-12-24T01:42:03.817Z,1018.28
2017-12-24T01:43:03.795Z,1018.29
2017-12-24T01:44:03.777Z,1018.38
2017-12-24T01:45:03.751Z,1018.36
2017-12-24T01:46:03.730Z,1018.36
2017-12-24T01:47:03.706Z,1018.34
2017-12-24T01:48:03.685Z,1018.41
2017-12-24T01:49:03.664Z,1018.31
2017-12-24T01:50:03.642Z,1018.38
2017-12-24T01:51:03.621Z,1018.38
2017-12-24T01:52:03.697Z,1018.38
2017-12-24T01:53:03.577Z,1018.35
2017-12-24T01:54:03.552Z,1018.45
2017-12-24T01:55:03.530Z,1018.38
2017-12-24T01:56:03.508Z,1018.39
2017-12-24T01:57:03.486Z,1018.39
2017-12-24T01:58:03.464Z,1018.36
2017-12-24T01:59:03.442Z,1018.30
2017-12-24T02:00:03.425Z,1018.39
2017-12-24T02:01:03.405Z,1018.33
2017-12-24T02:02:03.376Z,1018.34
2017-12-24T02:03:03.353Z,1018.30
2017-12-24T02:04:03.330Z,1018.36
2017-12-24T02:05:03.310Z,1018.41
2017-12-24T02:06:03.287Z,1018.31
2017-12-24T02:07:03.263Z,1018.34
2017-12-24T02:08:03.391Z,1018.42
2017-12-24T02:09:03.218Z,1018.39
2017-12-24T02:10:03.197Z,1018.46
2017-12-24T02:11:03.174Z,1018.40
2017-12-24T02:12:03.151Z,1018.44
2017-12-24T02:13:03.128Z,1018.42
2017-12-24T02:14:03.108Z,1018.39
2017-12-24T02:15:03.085Z,1018.50
2017-12-24T02:16:03.063Z,1018.41
2017-12-24T02:17:03.041Z,1018.45
2017-12-24T02:18:03.018Z,1018.37
2017-12-24T02:19:02.995Z,1018.34
2017-12-24T02:20:02.972Z,1018.29
2017-12-24T02:21:02.951Z,1018.27
2017-12-24T02:22:02.930Z,1018.34
2017-12-24T02:23:02.906Z,1018.29
2017-12-24T02:24:02.884Z,1018.32
2017-12-24T02:25:02.860Z,1018.20
2017-12-24T02:26:02.838Z,1018.25
2017-12-24T02:27:02.815Z,1018.23
2017-12-24T02:28:02.793Z,1018.24
2017-12-24T02:29:02.772Z,1018.24
2017-12-24T02:30:02.757Z,1018.29
2017-12-24T02:31:02.729Z,1018.18
2017-12-24T02:32:02.704Z,1018.17
2017-12-24T02:33:02.682Z,1018.12
2017-12-24T02:34:02.659Z,1018.18
2017-12-24T02:35:02.638Z,1018.17
2017-12-24T02:36:02.616Z,1018.15
2017-12-24T02:37:02.596Z,1018.16
2017-12-24T02:38:02.573Z,1018.18
2017-12-24T02:39:02.551Z,1018.19
2017-12-24T02:40:02.524Z,1018.11
2017-12-24T02:41:02.501Z,1018.22
2017-12-24T02:42:02.478Z,1018.19
2017-12-24T02:43:02.456Z,1018.20
2017-12-24T02:44:02.433Z,1018.18
2017-12-24T02:45:02.413Z,1018.09
2017-12-24T02:46:02.389Z,1018.13
2017-12-24T02:47:02.366Z,1018.09
2017-12-24T02:48:02.343Z,1018.09
2017-12-24T02:49:02.323Z,1018.07
2017-12-24T02:50:02.301Z,1018.06
2017-12-24T02:51:02.277Z,1018.07
2017-12-24T02:52:02.255Z,1018.09
2017-12-24T02:53:02.233Z,1018.08
2017-12-24T02:54:02.212Z,1018.11
2017-12-24T02:55:02.186Z,1018.10
2017-12-24T02:56:02.165Z,1018.08
2017-12-24T02:57:02.143Z,1018.15
2017-12-24T02:58:02.119Z,1018.11
2017-12-24T02:59:02.096Z,1018.12
2017-12-24T03:00:02.075Z,1018.11
2017-12-24T03:01:02.053Z,1018.12
2017-12-24T03:02:02.030Z,1018.13
2017-12-24T03:03:02.007Z,1018.08
2017-12-24T03:04:01.984Z,1018.15
2017-12-24T03:05:01.962Z,1018.12
2017-12-24T03:06:02.090Z,1018.10
2017-12-24T03:07:01.917Z,1018.11
2017-12-24T03:08:01.894Z,1018.07
2017-12-24T03:09:01.872Z,1018.06
2017-12-24T03:10:01.851Z,1018.04
2017-12-24T03:11:01.826Z,1018.00
2017-12-24T03:12:01.804Z,1018.05
2017-12-24T03:13:01.783Z,1017.98
2017-12-24T03:14:01.760Z,1018.09
2017-12-24T03:15:01.737Z,1018.08
2017-12-24T03:16:01.714Z,1017.98
2017-12-24T03:17:01.694Z,1017.99
2017-12-24T03:18:01.671Z,1017.95
2017-12-24T03:19:01.646Z,1017.93
2017-12-24T03:20:01.624Z,1017.91
2017-12-24T03:21:01.602Z,1017.93
2017-12-24T03:22:01.581Z,1017.89
2017-12-24T03:23:01.557Z,1017.90
2017-12-24T03:24:01.536Z,1017.90
2017-12-24T03:25:01.513Z,1017.84
2017-12-24T03:26:01.491Z,1017.86
2017-12-24T03:27:01.467Z,1017.87
2017-12-24T03:28:01.445Z,1017.80
2017-12-24T03:29:01.424Z,1017.85
2017-12-24T03:30:01.401Z,1017.84
2017-12-24T03:31:01.377Z,1017.85
2017-12-24T03:32:01.354Z,1017.84
2017-12-24T03:33:01.333Z,1017.86
2017-12-24T03:34:01.313Z,1017.83
2017-12-24T03:35:01.289Z,1017.78
2017-12-24T03:36:01.265Z,1017.75
2017-12-24T03:37:01.242Z,1017.76
2017-12-24T03:38:01.370Z,1017.74
2017-12-24T03:39:01.197Z,1017.72
2017-12-24T03:40:01.175Z,1017.65
2017-12-24T03:41:01.152Z,1017.66
2017-12-24T03:42:01.132Z,1017.66
2017-12-24T03:43:01.107Z,1017.64
2017-12-24T03:44:01.085Z,1017.67
2017-12-24T03:45:01.063Z,1017.79
2017-12-24T03:46:01.042Z,1017.68
2017-12-24T03:47:01.016Z,1017.59
2017-12-24T03:48:00.994Z,1017.67
2017-12-24T03:49:00.972Z,1017.69
2017-12-24T03:50:00.950Z,1017.69
2017-12-24T03:51:00.927Z,1017.72
2017-12-24T03:52:00.904Z,1017.69
2017-12-24T03:53:00.884Z,1017.78
2017-12-24T03:54:00.859Z,1017.71
2017-12-24T03:55:00.836Z,1017.70
2017-12-24T03:56:00.814Z,1017.70
2017-12-24T03:57:00.793Z,1017.74
2017-12-24T03:58:01.021Z,1017.70
2017-12-24T03:59:00.746Z,1017.64
2017-12-24T04:00:00.725Z,1017.65
2017-12-24T04:01:00.705Z,1017.63
2017-12-24T04:02:00.682Z,1017.59
2017-12-24T04:03:00.657Z,1017.54
2017-12-24T04:04:00.635Z,1017.59
2017-12-24T04:05:00.613Z,1017.60
2017-12-24T04:06:00.590Z,1017.55
2017-12-24T04:07:00.568Z,1017.54
2017-12-24T04:08:00.545Z,1017.59
2017-12-24T04:09:00.523Z,1017.58
2017-12-24T04:10:00.500Z,1017.56
2017-12-24T04:11:00.477Z,1017.53
2017-12-24T04:12:00.454Z,1017.52
2017-12-24T04:13:00.431Z,1017.48
2017-12-24T04:14:00.409Z,1017.45
2017-12-24T04:15:00.386Z,1017.44
2017-12-24T04:16:00.365Z,1017.46
2017-12-24T04:17:00.341Z,1017.42
2017-12-24T04:18:00.320Z,1017.39
2017-12-24T04:19:00.296Z,1017.43
2017-12-24T04:20:00.282Z,1017.33
2017-12-24T04:21:00.252Z,1017.42
2017-12-24T04:22:00.229Z,1017.40
2017-12-24T04:23:00.205Z,1017.37
2017-12-24T04:24:00.182Z,1017.40
2017-12-24T04:25:00.160Z,1017.33
2017-12-24T04:26:00.138Z,1017.31
2017-12-24T04:27:00.115Z,1017.30
2017-12-24T04:28:00.092Z,1017.43
2017-12-24T04:29:00.070Z,1017.40
2017-12-24T04:30:00.051Z,1017.40
2017-12-24T04:31:00.025Z,1017.43
2017-12-24T04:32:00.006Z,1017.42
2017-12-24T04:32:59.980Z,1017.42
2017-12-24T04:34:00.208Z,1017.38
2017-12-24T04:34:59.933Z,1017.40
2017-12-24T04:35:59.911Z,1017.38
2017-12-24T04:36:59.889Z,1017.40
2017-12-24T04:37:59.867Z,1017.49
2017-12-24T04:38:59.844Z,1017.44
2017-12-24T04:39:59.820Z,1017.45
2017-12-24T04:40:59.799Z,1017.41
2017-12-24T04:41:59.777Z,1017.41
2017-12-24T04:42:59.753Z,1017.48
2017-12-24T04:43:59.731Z,1017.46
2017-12-24T04:44:59.708Z,1017.43
2017-12-24T04:45:59.694Z,1017.45
2017-12-24T04:46:59.662Z,1017.40
2017-12-24T04:47:59.640Z,1017.43
2017-12-24T04:49:00.169Z,1017.39
2017-12-24T04:49:59.596Z,1017.42
2017-12-24T04:50:59.572Z,1017.42
2017-12-24T04:51:59.550Z,1017.40
2017-12-24T04:52:59.530Z,1017.45
2017-12-24T04:53:59.505Z,1017.43
2017-12-24T04:54:59.482Z,1017.45
2017-12-24T04:55:59.463Z,1017.44
2017-12-24T04:56:59.438Z,1017.36
2017-12-24T04:57:59.415Z,1017.41
2017-12-24T04:58:59.642Z,1017.38
2017-12-24T04:59:59.371Z,1017.37
2017-12-24T05:00:59.349Z,1017.34
2017-12-24T05:01:59.326Z,1017.35
2017-12-24T05:02:59.304Z,1017.35
2017-12-24T05:03:59.381Z,1017.31
2017-12-24T05:04:59.257Z,1017.32
2017-12-24T05:05:59.235Z,1017.28
2017-12-24T05:06:59.212Z,1017.30
2017-12-24T05:07:59.190Z,1017.23
2017-12-24T05:08:59.167Z,1017.29
2017-12-24T05:09:59.144Z,1017.24
2017-12-24T05:10:59.122Z,1017.13
2017-12-24T05:11:59.099Z,1017.26
2017-12-24T05:12:59.076Z,1017.22
2017-12-24T05:13:59.054Z,1017.24
2017-12-24T05:14:59.032Z,1017.21
2017-12-24T05:15:59.009Z,1017.20
2017-12-24T05:16:58.986Z,1017.23
2017-12-24T05:17:58.966Z,1017.19
2017-12-24T05:18:58.942Z,1017.08
2017-12-24T05:19:58.919Z,1017.21
2017-12-24T05:20:58.895Z,1017.21
2017-12-24T05:21:58.875Z,1017.17
2017-12-24T05:22:58.853Z,1017.15
2017-12-24T05:23:58.828Z,1017.07
2017-12-24T05:24:58.805Z,1017.09
2017-12-24T05:25:58.783Z,1017.09
2017-12-24T05:26:58.760Z,1017.01
2017-12-24T05:27:58.838Z,1017.06
2017-12-24T05:28:58.717Z,1017.06
2017-12-24T05:29:58.693Z,1017.08
2017-12-24T05:30:58.669Z,1017.04
2017-12-24T05:31:58.647Z,1017.09
2017-12-24T05:32:58.776Z,1017.00
2017-12-24T05:33:58.609Z,1017.02
2017-12-24T05:34:58.579Z,1017.01
2017-12-24T05:35:58.601Z,1017.06
2017-12-24T05:36:58.534Z,1016.95
2017-12-24T05:37:58.513Z,1016.96
2017-12-24T05:38:58.488Z,1017.07
2017-12-24T05:39:58.468Z,1017.09
2017-12-24T05:40:58.444Z,1017.08
2017-12-24T05:41:58.422Z,1017.09
2017-12-24T05:42:58.400Z,1017.10
2017-12-24T05:43:58.376Z,1017.03
2017-12-24T05:44:58.354Z,1017.03
2017-12-24T05:45:58.331Z,1017.05
2017-12-24T05:46:58.308Z,1017.09
2017-12-24T05:47:58.287Z,1017.06
2017-12-24T05:48:58.263Z,1017.00
2017-12-24T05:49:58.241Z,1017.05
2017-12-24T05:50:58.219Z,1016.97
2017-12-24T05:51:58.196Z,1017.05
2017-12-24T05:52:58.174Z,1017.05
2017-12-24T05:53:58.151Z,1016.95
2017-12-24T05:54:58.130Z,1016.97
2017-12-24T05:55:58.106Z,1017.00
2017-12-24T05:56:58.083Z,1017.04
2017-12-24T05:57:58.061Z,1016.98
2017-12-24T05:58:58.037Z,1016.98
2017-12-24T05:59:58.169Z,1016.95
2017-12-24T06:00:57.992Z,1016.97
2017-12-24T06:01:57.971Z,1016.99
2017-12-24T06:02:57.947Z,1017.03
2017-12-24T06:03:57.925Z,1017.03
2017-12-24T06:04:58.052Z,1017.00
2017-12-24T06:05:57.879Z,1016.97
2017-12-24T06:06:57.857Z,1016.98
2017-12-24T06:07:57.835Z,1016.97
2017-12-24T06:08:57.812Z,1016.99
2017-12-24T06:09:57.939Z,1016.90
2017-12-24T06:10:57.768Z,1016.94
2017-12-24T06:11:57.742Z,1016.96
2017-12-24T06:12:57.721Z,1016.89
2017-12-24T06:13:57.699Z,1016.90
2017-12-24T06:14:57.776Z,1016.89
2017-12-24T06:15:57.653Z,1016.82
2017-12-24T06:16:57.631Z,1016.86
2017-12-24T06:17:57.609Z,1016.85
2017-12-24T06:18:57.585Z,1016.79
2017-12-24T06:19:57.562Z,1016.68
2017-12-24T06:20:57.543Z,1016.73
2017-12-24T06:21:57.620Z,1016.71
2017-12-24T06:22:57.495Z,1016.75
2017-12-24T06:23:57.472Z,1016.72
2017-12-24T06:24:57.449Z,1016.74
2017-12-24T06:25:57.427Z,1016.65
2017-12-24T06:26:57.505Z,1016.64
2017-12-24T06:27:57.382Z,1016.63
2017-12-24T06:28:57.360Z,1016.62
2017-12-24T06:29:57.337Z,1016.64
2017-12-24T06:30:57.314Z,1016.65
2017-12-24T06:31:57.542Z,1016.65
2017-12-24T06:32:57.270Z,1016.70
2017-12-24T06:33:57.248Z,1016.65
2017-12-24T06:34:57.224Z,1016.66
2017-12-24T06:35:57.202Z,1016.70
2017-12-24T06:36:57.178Z,1016.64
2017-12-24T06:37:57.158Z,1016.60
2017-12-24T06:38:57.135Z,1016.62
2017-12-24T06:39:57.112Z,1016.65
2017-12-24T06:40:57.089Z,1016.69
2017-12-24T06:41:57.068Z,1016.71
2017-12-24T06:42:57.044Z,1016.70
2017-12-24T06:43:57.021Z,1016.64
2017-12-24T06:44:56.999Z,1016.70
2017-12-24T06:45:56.976Z,1016.64
2017-12-24T06:46:56.953Z,1016.65
2017-12-24T06:47:56.930Z,1016.64
2017-12-24T06:48:56.909Z,1016.63
2017-12-24T06:49:56.887Z,1016.64
2017-12-24T06:50:56.863Z,1016.55
2017-12-24T06:51:56.841Z,1016.59
2017-12-24T06:52:56.818Z,1016.64
2017-12-24T06:53:56.796Z,1016.63
2017-12-24T06:54:56.774Z,1016.59
2017-12-24T06:55:56.751Z,1016.59
2017-12-24T06:56:56.730Z,1016.64
2017-12-24T06:57:56.707Z,1016.61
2017-12-24T06:58:56.684Z,1016.66
2017-12-24T06:59:56.661Z,1016.67
2017-12-24T07:00:56.638Z,1016.56
2017-12-24T07:01:56.616Z,1016.58
2017-12-24T07:02:56.592Z,1016.57
2017-12-24T07:03:56.571Z,1016.53
2017-12-24T07:04:56.549Z,1016.52
2017-12-24T07:05:56.527Z,1016.52
2017-12-24T07:06:56.502Z,1016.47
2017-12-24T07:07:56.481Z,1016.54
2017-12-24T07:08:56.458Z,1016.55
2017-12-24T07:09:56.436Z,1016.47
2017-12-24T07:10:56.413Z,1016.53
2017-12-24T07:11:57.191Z,1016.46
2017-12-24T07:12:56.368Z,1016.56
2017-12-24T07:13:56.345Z,1016.50
2017-12-24T07:14:56.323Z,1016.58
2017-12-24T07:15:56.299Z,1016.65
2017-12-24T07:16:56.277Z,1016.60
2017-12-24T07:17:56.255Z,1016.55
2017-12-24T07:18:56.232Z,1016.56
2017-12-24T07:19:56.211Z,1016.58
2017-12-24T07:20:56.189Z,1016.56
2017-12-24T07:21:56.166Z,1016.56
2017-12-24T07:22:56.142Z,1016.56
2017-12-24T07:23:56.123Z,1016.48
2017-12-24T07:24:56.099Z,1016.53
2017-12-24T07:25:56.096Z,1016.58
2017-12-24T07:26:56.053Z,1016.59
2017-12-24T07:27:56.031Z,1016.59
2017-12-24T07:28:56.008Z,1016.57
2017-12-24T07:29:55.985Z,1016.67
2017-12-24T07:30:55.962Z,1016.56
2017-12-24T07:31:56.040Z,1016.53
2017-12-24T07:32:55.919Z,1016.50
2017-12-24T07:33:55.896Z,1016.49
2017-12-24T07:34:55.874Z,1016.51
2017-12-24T07:35:55.851Z,1016.52
2017-12-24T07:36:55.828Z,1016.46
2017-12-24T07:37:56.056Z,1016.48
2017-12-24T07:38:55.784Z,1016.52
2017-12-24T07:39:55.761Z,1016.47
2017-12-24T07:40:55.738Z,1016.44
2017-12-24T07:41:55.716Z,1016.41
2017-12-24T07:42:55.794Z,1016.53
2017-12-24T07:43:55.672Z,1016.46
2017-12-24T07:44:55.649Z,1016.46
2017-12-24T07:45:55.628Z,1016.41
2017-12-24T07:46:55.603Z,1016.53
2017-12-24T07:47:55.830Z,1016.43
2017-12-24T07:48:55.561Z,1016.49
2017-12-24T07:49:55.537Z,1016.51
2017-12-24T07:50:55.513Z,1016.57
2017-12-24T07:51:55.493Z,1016.44
2017-12-24T07:52:55.470Z,1016.49
2017-12-24T07:53:55.447Z,1016.42
2017-12-24T07:54:55.425Z,1016.45
2017-12-24T07:55:55.402Z,1016.43
2017-12-24T07:56:55.379Z,1016.44
2017-12-24T07:57:55.358Z,1016.47
2017-12-24T07:58:55.335Z,1016.41
2017-12-24T07:59:55.311Z,1016.38
2017-12-24T08:00:55.289Z,1016.40
2017-12-24T08:01:55.267Z,1016.38
2017-12-24T08:02:55.260Z,1016.38
2017-12-24T08:03:55.222Z,1016.36
2017-12-24T08:04:55.200Z,1016.41
2017-12-24T08:05:55.178Z,1016.41
2017-12-24T08:06:55.163Z,1016.36
2017-12-24T08:07:55.133Z,1016.41
2017-12-24T08:08:55.109Z,1016.45
2017-12-24T08:09:55.088Z,1016.40
2017-12-24T08:10:55.064Z,1016.43
2017-12-24T08:11:55.042Z,1016.53
2017-12-24T08:12:55.020Z,1016.56
2017-12-24T08:13:54.997Z,1016.49
2017-12-24T08:14:54.976Z,1016.42
2017-12-24T08:15:54.952Z,1016.47
2017-12-24T08:16:54.929Z,1016.51
2017-12-24T08:17:55.057Z,1016.48
2017-12-24T08:18:54.885Z,1016.44
2017-12-24T08:19:54.872Z,1016.48
2017-12-24T08:20:54.840Z,1016.50
2017-12-24T08:21:54.819Z,1016.47
2017-12-24T08:22:54.795Z,1016.51
2017-12-24T08:23:54.922Z,1016.49
2017-12-24T08:24:54.752Z,1016.45
2017-12-24T08:25:54.728Z,1016.43
2017-12-24T08:26:54.704Z,1016.45
2017-12-24T08:27:54.682Z,1016.48
2017-12-24T08:28:54.660Z,1016.54
2017-12-24T08:29:54.638Z,1016.53
2017-12-24T08:30:54.615Z,1016.49
2017-12-24T08:31:54.592Z,1016.48
2017-12-24T08:32:54.570Z,1016.49
2017-12-24T08:33:54.549Z,1016.49
2017-12-24T08:34:54.525Z,1016.52
2017-12-24T08:35:54.502Z,1016.53
2017-12-24T08:36:54.481Z,1016.54
2017-12-24T08:37:54.458Z,1016.54
2017-12-24T08:38:54.535Z,1016.48
2017-12-24T08:39:54.413Z,1016.53
2017-12-24T08:40:54.392Z,1016.48
2017-12-24T08:41:54.370Z,1016.52
2017-12-24T08:42:54.347Z,1016.45
2017-12-24T08:43:54.324Z,1016.50
2017-12-24T08:44:54.301Z,1016.48
2017-12-24T08:45:54.429Z,1016.51
2017-12-24T08:46:54.256Z,1016.54
2017-12-24T08:47:54.234Z,1016.53
2017-12-24T08:48:54.213Z,1016.54
2017-12-24T08:49:54.191Z,1016.44
2017-12-24T08:50:54.166Z,1016.56
2017-12-24T08:51:54.148Z,1016.55
2017-12-24T08:52:54.123Z,1016.53
2017-12-24T08:53:54.101Z,1016.54
2017-12-24T08:54:54.077Z,1016.60
2017-12-24T08:55:54.055Z,1016.53
2017-12-24T08:56:54.033Z,1016.52
2017-12-24T08:57:54.011Z,1016.47
2017-12-24T08:58:53.987Z,1016.46
2017-12-24T08:59:53.966Z,1016.46
2017-12-24T09:00:53.942Z,1016.46
2017-12-24T09:01:53.921Z,1016.47
2017-12-24T09:02:53.898Z,1016.42
2017-12-24T09:03:53.876Z,1016.37
2017-12-24T09:04:53.854Z,1016.34
2017-12-24T09:05:53.831Z,1016.40
2017-12-24T09:06:53.809Z,1016.45
2017-12-24T09:07:53.787Z,1016.46
2017-12-24T09:08:53.772Z,1016.34
2017-12-24T09:09:53.742Z,1016.38
2017-12-24T09:10:53.720Z,1016.42
2017-12-24T09:11:53.698Z,1016.40
2017-12-24T09:12:53.676Z,1016.39
2017-12-24T09:13:53.653Z,1016.43
2017-12-24T09:14:53.633Z,1016.48
2017-12-24T09:15:53.609Z,1016.42
2017-12-24T09:16:53.587Z,1016.47
2017-12-24T09:17:53.569Z,1016.49
2017-12-24T09:18:53.541Z,1016.46
2017-12-24T09:19:53.619Z,1016.50
2017-12-24T09:20:53.498Z,1016.50
2017-12-24T09:21:53.478Z,1016.49
2017-12-24T09:22:53.453Z,1016.53
2017-12-24T09:23:53.432Z,1016.44
2017-12-24T09:24:53.410Z,1016.45
2017-12-24T09:25:53.388Z,1016.53
2017-12-24T09:26:53.364Z,1016.42
2017-12-24T09:27:53.345Z,1016.49
2017-12-24T09:28:53.323Z,1016.47
2017-12-24T09:29:53.600Z,1016.51
2017-12-24T09:30:53.275Z,1016.58
2017-12-24T09:31:53.254Z,1016.57
2017-12-24T09:32:53.234Z,1016.51
2017-12-24T09:33:53.210Z,1016.55
2017-12-24T09:34:53.188Z,1016.56
2017-12-24T09:35:53.414Z,1016.65
2017-12-24T09:36:53.143Z,1016.54
2017-12-24T09:37:53.122Z,1016.54
2017-12-24T09:38:53.097Z,1016.54
2017-12-24T09:39:53.076Z,1016.58
2017-12-24T09:40:53.055Z,1016.50
2017-12-24T09:41:53.032Z,1016.50
2017-12-24T09:42:53.010Z,1016.53
2017-12-24T09:43:52.988Z,1016.47
2017-12-24T09:44:52.966Z,1016.43
2017-12-24T09:45:53.193Z,1016.47
2017-12-24T09:46:52.920Z,1016.45
2017-12-24T09:47:52.899Z,1016.39
2017-12-24T09:48:52.877Z,1016.48
2017-12-24T09:49:52.854Z,1016.49
2017-12-24T09:50:52.832Z,1016.44
2017-12-24T09:51:52.809Z,1016.50
2017-12-24T09:52:52.789Z,1016.45
2017-12-24T09:53:52.765Z,1016.44
2017-12-24T09:54:52.742Z,1016.31
2017-12-24T09:55:52.719Z,1016.38
2017-12-24T09:56:52.699Z,1016.30
2017-12-24T09:57:52.680Z,1016.28
2017-12-24T09:58:52.654Z,1016.34
2017-12-24T09:59:52.633Z,1016.33
2017-12-24T10:00:52.609Z,1016.35
2017-12-24T10:01:52.588Z,1016.31
2017-12-24T10:02:52.565Z,1016.30
2017-12-24T10:03:52.542Z,1016.26
2017-12-24T10:04:52.520Z,1016.30
2017-12-24T10:05:52.497Z,1016.23
2017-12-24T10:06:52.474Z,1016.20
2017-12-24T10:07:52.452Z,1016.23
2017-12-24T10:08:52.431Z,1016.26
2017-12-24T10:09:52.408Z,1016.27
2017-12-24T10:10:52.385Z,1016.20
2017-12-24T10:11:52.362Z,1016.13
2017-12-24T10:12:52.341Z,1016.21
2017-12-24T10:13:52.319Z,1016.21
2017-12-24T10:14:52.294Z,1016.16
2017-12-24T10:15:52.272Z,1016.21
2017-12-24T10:16:52.250Z,1016.27
2017-12-24T10:17:52.228Z,1016.17
2017-12-24T10:18:52.204Z,1016.18
2017-12-24T10:19:52.183Z,1016.16
2017-12-24T10:20:52.161Z,1016.11
2017-12-24T10:21:52.140Z,1016.14
2017-12-24T10:22:52.269Z,1016.16
2017-12-24T10:23:52.094Z,1016.11
2017-12-24T10:24:52.072Z,1016.04
2017-12-24T10:25:52.050Z,1016.10
2017-12-24T10:26:52.025Z,1016.06
2017-12-24T10:27:52.005Z,1016.09
2017-12-24T10:28:51.980Z,1016.05
2017-12-24T10:29:51.959Z,1016.04
2017-12-24T10:30:51.936Z,1016.00
2017-12-24T10:31:51.914Z,1016.04
2017-12-24T10:32:51.891Z,1016.10
2017-12-24T10:33:51.870Z,1016.05
2017-12-24T10:34:51.847Z,1016.12
2017-12-24T10:35:51.824Z,1015.96
2017-12-24T10:36:51.808Z,1016.04
2017-12-24T10:37:51.779Z,1016.00
2017-12-24T10:38:51.755Z,1016.02
2017-12-24T10:39:51.733Z,1016.01
2017-12-24T10:40:51.710Z,1016.01
2017-12-24T10:41:51.689Z,1016.00
2017-12-24T10:42:51.664Z,1016.00
2017-12-24T10:43:51.643Z,1015.94
2017-12-24T10:44:51.620Z,1016.10
2017-12-24T10:45:51.599Z,1015.93
2017-12-24T10:46:51.576Z,1015.94
2017-12-24T10:47:51.553Z,1015.98
2017-12-24T10:48:51.530Z,1016.01
2017-12-24T10:49:52.608Z,1015.93
2017-12-24T10:50:51.483Z,1015.98
2017-12-24T10:51:51.462Z,1015.91
2017-12-24T10:52:51.439Z,1015.93
2017-12-24T10:53:51.418Z,1015.95
2017-12-24T10:54:51.395Z,1016.03
2017-12-24T10:55:51.376Z,1015.90
2017-12-24T10:56:51.350Z,1015.86
2017-12-24T10:57:51.327Z,1015.85
2017-12-24T10:58:51.303Z,1015.88
2017-12-24T10:59:51.531Z,1015.83
2017-12-24T11:00:51.259Z,1015.87
2017-12-24T11:01:51.287Z,1015.86
2017-12-24T11:02:51.214Z,1015.86
2017-12-24T11:03:51.193Z,1015.93
2017-12-24T11:04:51.418Z,1015.85
2017-12-24T11:05:51.146Z,1015.86
2017-12-24T11:06:51.122Z,1015.97
2017-12-24T11:07:51.101Z,1015.89
2017-12-24T11:08:51.077Z,1015.84
2017-12-24T11:09:51.056Z,1015.85
2017-12-24T11:10:51.039Z,1015.88
2017-12-24T11:11:51.010Z,1015.81
2017-12-24T11:12:50.986Z,1015.83
2017-12-24T11:13:50.964Z,1015.78
2017-12-24T11:14:51.091Z,1015.77
2017-12-24T11:15:50.919Z,1015.78
2017-12-24T11:16:50.897Z,1015.86
2017-12-24T11:17:50.875Z,1015.76
2017-12-24T11:18:50.851Z,1015.75
2017-12-24T11:19:50.828Z,1015.72
2017-12-24T11:20:50.807Z,1015.66
2017-12-24T11:21:50.784Z,1015.62
2017-12-24T11:22:50.760Z,1015.64
2017-12-24T11:23:50.739Z,1015.61
2017-12-24T11:24:50.716Z,1015.61
2017-12-24T11:25:50.693Z,1015.60
2017-12-24T11:26:50.670Z,1015.48
2017-12-24T11:27:50.647Z,1015.55
2017-12-24T11:28:50.626Z,1015.58
2017-12-24T11:29:50.603Z,1015.50
2017-12-24T11:30:50.579Z,1015.45
2017-12-24T11:31:50.557Z,1015.42
2017-12-24T11:32:50.534Z,1015.49
2017-12-24T11:33:50.513Z,1015.47
2017-12-24T11:34:50.490Z,1015.31
2017-12-24T11:35:50.468Z,1015.36
2017-12-24T11:36:50.445Z,1015.38
2017-12-24T11:37:50.423Z,1015.27
2017-12-24T11:38:50.399Z,1015.37
2017-12-24T11:39:50.376Z,1015.38
2017-12-24T11:40:50.355Z,1015.40
2017-12-24T11:41:50.333Z,1015.32
2017-12-24T11:42:50.309Z,1015.29
2017-12-24T11:43:50.286Z,1015.35
2017-12-24T11:44:50.264Z,1015.15
2017-12-24T11:45:50.242Z,1015.32
2017-12-24T11:46:50.219Z,1015.23
2017-12-24T11:47:50.196Z,1015.13
2017-12-24T11:48:50.174Z,1015.10
2017-12-24T11:49:50.153Z,1015.12
2017-12-24T11:50:50.129Z,1015.22
2017-12-24T11:51:50.108Z,1015.09
2017-12-24T11:52:50.085Z,1015.01
2017-12-24T11:53:50.062Z,1015.06
2017-12-24T11:54:50.038Z,1015.11
2017-12-24T11:55:50.016Z,1014.98
2017-12-24T11:56:49.995Z,1015.09
2017-12-24T11:57:49.971Z,1014.94
2017-12-24T11:58:49.950Z,1015.01
2017-12-24T11:59:49.926Z,1014.95
2017-12-24T12:00:50.054Z,1014.88
2017-12-24T12:01:49.882Z,1014.91
2017-12-24T12:02:49.859Z,1015.02
2017-12-24T12:03:49.835Z,1014.92
2017-12-24T12:04:49.814Z,1014.90